• Join FlightAware (Why Join?)
  • Login
  • US Flag 
10:33AM EST


 

Airport Tracker/Info


-or-


 

Live Flight TrackerFlight Track Log ✈ DAL6034 ✈ 22-Apr-2013 ✈ KMHT - KLGA

Flight Track Log - Related Links

Times and Time Zones

All times are in EDT time to prevent confusion due to time zone crossing. See the DAL6034 flight status page for this flight to view local times or setup timezone preferences in your user account.

Time Position Orientation Groundspeed Altitude Reporting Facility
EDT Latitude Longitude Course Direction KTS MPH feet Rate Location/Type
06:54PM 42.9500 -71.4333 262° West 155 178 900  Level KA90
06:55PM 42.9628 -71.4186 40° Northeast 181 208 2,000 2,760 Climbing Boston Center
06:56PM 43.0169 -71.4264 354° North 243 280 4,600 3,000 Climbing Boston Center
06:57PM 43.0425 -71.5025 295° West 238 274 8,100 3,120 Climbing Boston Center
06:58PM 42.6552 -71.7624 236° Southwest  Level Estimated
06:58PM 43.0744 -71.5844 298° West 246 283 10,900  Level Boston Center
06:59PM 42.5856 -71.8436 231° Southwest  Level Estimated
06:59PM 43.0939 -71.6781 286° West 251 289 13,700  Level Boston Center
07:00PM 42.5733 -71.9671 262° West  Level FlightAware Approximate
07:00PM 43.0903 -71.7606 267° West 262 302 15,600  Level Boston Center
07:01PM 43.0325 -71.8522 229° Southwest 272 313 17,800 1,920 Climbing Boston Center
07:02PM 42.9764 -71.9094 217° Southwest 277 319 19,500 1,080 Climbing Boston Center
07:03PM 42.9058 -71.9808 217° Southwest 301 346 20,000 240 Climbing Boston Center
07:04PM 42.8333 -72.0522 216° Southwest 314 361 20,000  Level Boston Center
07:05PM 42.7583 -72.1292 217° Southwest 333 383 20,000 -540 Level Boston Center
07:06PM 42.6814 -72.2058 216° Southwest 339 390 19,000 -1,080 Descending Boston Center
07:07PM 42.6086 -72.2792 217° Southwest 334 384 17,900 -900 Descending Boston Center
07:08PM 42.5358 -72.3500 216° Southwest 334 384 17,300 -900 Descending Boston Center
07:09PM 42.4631 -72.4233 217° Southwest 334 384 16,100 -660 Descending Boston Center
07:10PM 42.3983 -72.5075 224° Southwest 334 384 16,000  Descending Boston Center
07:11PM 42.3378 -72.5975 228° Southwest 329 379 16,100  Climbing Boston Center
07:12PM 42.2772 -72.6842 227° Southwest 323 372 16,000 -60 Descending Boston Center
07:13PM 42.2122 -72.7819 228° Southwest 318 366 16,000 -60 Level Boston Center
07:14PM 42.1558 -72.8603 226° Southwest 318 366 15,900 -600 Descending Boston Center
07:15PM 42.0928 -72.9550 228° Southwest 318 366 14,800 -900 Descending Boston Center
07:16PM 42.0383 -73.0300 226° Southwest 318 366 14,100 -360 Descending Boston Center
07:17PM 41.9731 -73.1269 228° Southwest 318 366 14,100  Level Boston Center
07:18PM 41.9206 -73.2017 227° Southwest 318 366 14,100  Level Boston Center
07:19PM 41.8511 -73.2817 221° Southwest 310 357 14,100 -60 Level Boston Center
07:20PM 41.7861 -73.3478 217° Southwest 305 351 14,000 -60 Descending Boston Center
07:21PM 41.7253 -73.4081 216° Southwest 305 351 14,000  Level Boston Center
07:22PM 41.6536 -73.4847 219° Southwest 300 345 14,000 -420 Level Boston Center
07:23PM 41.5883 -73.5503 217° Southwest 300 345 13,200 -1,140 Descending Boston Center
07:24PM 41.4667 -73.6667 216° Southwest 268 308 10,900 -1,380 Descending New York TRACON
07:26PM 41.4000 -73.7333 217° Southwest 267 307 9,200 -900 Descending New York TRACON
07:27PM 41.3333 -73.7833 209° Southwest 268 308 9,100 -60 Descending New York TRACON
07:27PM 41.2667 -73.7833 180° South 273 314 9,100 -540 Level New York TRACON
07:29PM 41.2000 -73.8000 191° South 262 302 8,100 -1,140 Descending New York TRACON
07:30PM 41.1167 -73.8167 189° South 257 296 6,800 -1,320 Descending New York TRACON
07:31PM 41.0500 -73.8667 209° Southwest 265 305 5,500 -1,260 Descending New York TRACON
07:32PM 40.9833 -73.9000 201° Southwest 265 305 4,300 -720 Descending New York TRACON
07:33PM 40.9333 -73.9167 194° South 246 283 4,100 -120 Descending New York TRACON
07:34PM 40.8500 -73.9500 197° South 251 289 4,100  Level New York TRACON
07:35PM 40.8000 -73.9833 207° Southwest 213 245 4,100  Level New York TRACON
07:36PM 40.7500 -74.0167 207° Southwest 190 219 4,100  Level New York TRACON
07:36PM 40.7167 -74.0500 217° Southwest 198 228 4,100  Level New York TRACON
07:37PM 40.6667 -74.1000 217° Southwest 204 235 4,100 -300 Level New York TRACON
07:38PM 40.6167 -74.1167 194° South 197 227 3,500 -540 Descending New York TRACON
07:39PM 40.6000 -74.0667 114° Southeast 162 186 3,100 -360 Descending New York TRACON
07:40PM 40.6167 -74.0167 66° East 161 185 2,800 -240 Descending New York TRACON
07:41PM 40.6500 -73.9833 37° Northeast 170 196 2,700 -120 Descending New York TRACON